Time;durP1;ratioP1;P1;durP2;ratioP2;P2;SDS_P1;SDS_P2;PMS_P1;PMS_P2;Temp;Humidity;BMP_temperature;BMP_pressure;BME280_temperature;BME280_humidity;BME280_pressure;Samples;Min_cycle;Max_cycle;Signal;HPM_P1;HPM_P2
2022/05/26 00:00:07;;;;;;;2.17;0.40;;;14.00;97.10;;;13.72;68.16;97685.59;5019260;28;20155;-49
2022/05/26 00:02:33;;;;;;;3.35;0.40;;;14.10;97.00;;;13.65;68.34;97665.59;5027469;28;20036;-49
2022/05/26 00:04:59;;;;;;;0.43;0.40;;;14.10;97.10;;;13.81;68.00;97684.31;5028380;28;20033;-48
2022/05/26 00:07:24;;;;;;;1.50;0.50;;;14.10;97.00;;;13.84;67.79;97675.38;5030209;28;20436;-49
2022/05/26 00:09:50;;;;;;;0.93;0.50;;;14.10;97.00;;;13.90;68.00;97686.53;5029738;28;20033;-47
2022/05/26 00:12:18;;;;;;;2.05;0.50;;;14.20;97.00;;;13.93;67.42;97686.41;5032577;28;20520;-49
2022/05/26 00:14:44;;;;;;;1.75;0.43;;;14.20;96.90;;;13.98;67.19;97696.81;5028952;28;20041;-49
2022/05/26 00:17:10;;;;;;;1.05;0.40;;;14.30;96.80;;;14.01;66.97;97693.16;5027949;28;20056;-49
2022/05/26 00:19:35;;;;;;;1.48;0.45;;;14.30;96.70;;;14.00;67.06;97700.25;5033939;28;20041;-48
2022/05/26 00:22:01;;;;;;;0.75;0.40;;;14.30;96.70;;;13.96;67.48;97706.59;5029770;28;20033;-45
2022/05/26 00:24:27;;;;;;;3.75;1.25;;;14.30;96.90;;;13.93;67.99;97704.97;5029905;28;20029;-46
2022/05/26 00:26:52;;;;;;;1.85;0.40;;;14.20;97.00;;;13.91;68.19;97705.97;5029688;28;20036;-49
2022/05/26 00:29:18;;;;;;;0.90;0.50;;;14.20;97.10;;;13.88;68.62;97704.31;5027828;28;20335;-49
2022/05/26 00:31:44;;;;;;;1.35;0.60;;;14.20;97.30;;;13.87;68.36;97707.91;5026989;28;20168;-49
2022/05/26 00:34:10;;;;;;;1.35;0.52;;;14.20;97.30;;;13.86;68.18;97708.81;5030891;28;20039;-46
2022/05/26 00:36:39;;;;;;;2.75;0.70;;;14.20;97.30;;;13.81;68.66;97704.66;5031948;28;20477;-48
2022/05/26 00:39:11;;;;;;;0.75;0.50;;;14.10;97.20;;;13.65;68.97;97685.94;5032740;28;20029;-49
2022/05/26 00:41:47;;;;;;;1.88;0.63;;;14.10;97.40;;;13.67;69.49;97700.81;5032176;28;20025;-50
2022/05/26 00:44:14;;;;;;;2.13;0.50;;;14.00;97.60;;;13.60;69.91;97703.81;5030485;28;20033;-49
2022/05/26 00:47:00;;;;;;;1.70;0.47;;;13.90;97.80;;;13.48;70.58;97702.59;5028998;28;20051;-47
2022/05/26 00:49:47;;;;;;;1.25;0.68;;;13.80;98.00;;;13.41;71.27;97693.19;5033426;28;20055;-49
2022/05/26 00:52:21;;;;;;;2.05;0.73;;;13.70;98.30;;;13.36;71.18;97696.88;5015949;28;20107;-49
2022/05/26 00:54:48;;;;;;;1.48;0.60;;;13.70;98.30;;;13.32;71.60;97689.16;5028182;28;20043;-46
2022/05/26 00:57:22;;;;;;;1.80;0.60;;;13.70;98.40;;;13.26;72.17;97692.91;5028869;28;20036;-50
2022/05/26 00:59:57;;;;;;;1.27;0.50;;;13.60;98.70;;;13.23;72.41;97694.81;5031065;28;20076;-46
2022/05/26 01:02:33;;;;;;;1.02;0.35;;;13.50;98.70;;;13.13;73.11;97683.75;5013967;28;20485;-50
2022/05/26 01:05:07;;;;;;;0.70;0.40;;;13.50;99.00;;;13.05;73.69;97696.47;5014493;28;20029;-49
2022/05/26 01:07:38;;;;;;;1.65;0.60;;;13.30;99.20;;;12.98;74.43;97695.84;5033015;28;20124;-48
2022/05/26 01:10:05;;;;;;;4.80;0.50;;;13.30;99.40;;;12.94;74.57;97695.13;5016302;28;20156;-50
2022/05/26 01:12:31;;;;;;;0.95;0.40;;;13.30;99.70;;;12.93;75.29;97692.53;5010700;28;20103;-46
2022/05/26 01:15:13;;;;;;;1.13;0.50;;;13.20;99.90;;;12.89;75.01;97690.94;5028491;28;20022;-49
2022/05/26 01:18:12;;;;;;;2.05;0.50;;;13.20;99.90;;;12.87;75.15;97688.34;5019832;28;20036;-49
2022/05/26 01:20:49;;;;;;;1.20;0.55;;;13.20;99.90;;;12.92;74.49;97686.38;5014745;28;20033;-49
2022/05/26 01:23:42;;;;;;;1.33;0.30;;;13.20;99.80;;;12.95;73.47;97686.22;5030438;28;20037;-49
2022/05/26 01:26:36;;;;;;;;;;;13.20;99.70;;;12.91;74.10;97686.44;5026494;28;20626;-49
2022/05/26 01:29:44;;;;;;;0.40;0.40;;;13.20;99.70;;;12.87;74.49;97682.22;5032461;28;20340;-46
2022/05/26 01:32:42;;;;;;;1.85;0.50;;;13.20;99.70;;;12.83;74.05;97683.25;5028166;28;20319;-48
2022/05/26 01:35:37;;;;;;;0.77;0.43;;;13.20;99.70;;;12.78;74.45;97676.38;5026933;28;20342;-45
2022/05/26 01:38:40;;;;;;;0.50;0.35;;;13.10;99.80;;;12.72;75.51;97678.38;5018911;28;20028;-49
2022/05/26 01:41:48;;;;;;;1.13;0.45;;;13.10;99.90;;;12.55;75.03;97656.13;5027346;28;20036;-49
2022/05/26 01:44:25;;;;;;;0.75;0.45;;;13.00;99.90;;;12.62;75.32;97680.56;5031834;28;20108;-47
2022/05/26 01:46:52;;;;;;;1.23;0.40;;;12.90;99.90;;;12.58;75.17;97682.47;5021981;28;20033;-49
2022/05/26 01:49:43;;;;;;;2.13;0.47;;;12.90;99.90;;;12.60;76.02;97677.97;5033303;28;20535;-49
2022/05/26 01:52:17;;;;;;;0.65;0.40;;;12.90;99.90;;;12.52;75.78;97679.22;5031259;28;20200;-49
2022/05/26 01:55:21;;;;;;;1.25;0.30;;;12.80;99.90;;;12.46;76.37;97676.81;5018990;28;20037;-47
2022/05/26 01:58:08;;;;;;;1.77;0.50;;;12.80;99.90;;;12.40;76.68;97684.06;5030877;28;20211;-49
2022/05/26 02:00:34;;;;;;;2.05;0.60;;;12.70;99.90;;;12.41;75.99;97685.78;5019373;28;20523;-48
2022/05/26 02:03:17;;;;;;;1.13;0.55;;;12.70;99.90;;;12.40;75.85;97685.88;5034084;28;20068;-49
2022/05/26 02:05:49;;;;;;;1.02;0.40;;;12.70;99.90;;;12.38;75.88;97687.69;5034381;28;20037;-49
2022/05/26 02:08:31;;;;;;;1.38;0.40;;;12.70;99.90;;;12.39;75.76;97686.78;5038325;28;20021;-49
2022/05/26 02:11:18;;;;;;;3.88;0.40;;;12.70;99.90;;;12.34;76.09;97683.44;5018866;28;20056;-50
2022/05/26 02:14:03;;;;;;;1.27;0.47;;;12.70;99.90;;;12.34;76.03;97686.94;5034341;28;20119;-48
2022/05/26 02:16:49;;;;;;;1.55;0.52;;;12.60;99.90;;;12.32;76.59;97687.94;5035026;28;20431;-49
2022/05/26 02:19:28;;;;;;;0.90;0.50;;;12.70;99.90;;;12.27;77.07;97693.41;5034596;28;20048;-49
2022/05/26 02:22:20;;;;;;;1.17;0.45;;;12.60;99.90;;;12.28;76.59;97691.63;5037201;28;20512;-46
2022/05/26 02:25:21;;;;;;;1.10;0.40;;;12.60;99.90;;;12.21;77.90;97685.72;5026053;28;20028;-47
2022/05/26 02:27:52;;;;;;;2.20;0.30;;;12.50;99.90;;;12.11;78.94;97692.28;5036041;28;20060;-49
2022/05/26 02:30:21;;;;;;;0.40;0.28;;;12.40;99.90;;;12.05;79.40;97695.16;5027409;28;20090;-49
2022/05/26 02:32:50;;;;;;;2.72;0.63;;;12.40;99.90;;;11.96;80.92;97686.66;5017033;28;20060;-47
2022/05/26 02:35:39;;;;;;;1.70;0.43;;;12.30;99.90;;;11.90;80.51;97689.53;5018090;28;20045;-48
2022/05/26 02:38:22;;;;;;;0.50;0.30;;;12.20;99.90;;;11.83;81.28;97685.38;5036219;28;20045;-49
2022/05/26 02:40:51;;;;;;;0.32;0.30;;;12.20;99.90;;;11.74;82.14;97686.56;5033617;28;20028;-49
2022/05/26 02:43:24;;;;;;;0.52;0.30;;;12.10;99.90;;;11.68;82.70;97688.56;5034066;28;20032;-51
2022/05/26 02:46:42;;;;;;;1.52;0.55;;;12.00;99.90;;;11.63;82.95;97689.59;5033134;28;20370;-49
2022/05/26 02:49:23;;;;;;;2.10;0.50;;;12.00;99.90;;;11.61;83.01;97695.84;5020317;28;20056;-47
2022/05/26 02:52:05;;;;;;;1.42;0.75;;;11.90;99.90;;;11.60;83.78;97688.84;5029897;28;20509;-49
2022/05/26 02:54:57;;;;;;;0.90;0.40;;;11.90;99.90;;;11.54;83.99;97687.31;5025769;28;20065;-45
2022/05/26 02:57:35;;;;;;;0.88;0.50;;;11.90;99.90;;;11.48;85.13;97695.44;5013658;28;20546;-49
2022/05/26 03:00:04;;;;;;;0.43;0.30;;;11.80;99.90;;;11.43;86.08;97697.38;5011879;28;20052;-49
2022/05/26 03:03:11;;;;;;;0.65;0.40;;;11.80;99.90;;;11.39;86.03;97693.97;5024396;28;20048;-48
2022/05/26 03:06:21;;;;;;;0.50;0.47;;;11.70;99.90;;;11.36;86.12;97699.41;5030711;28;21242;-47
2022/05/26 03:08:47;;;;;;;0.85;0.40;;;11.70;99.90;;;11.32;86.85;97697.75;5016017;28;20059;-49
2022/05/26 03:11:19;;;;;;;0.82;0.40;;;11.70;99.90;;;11.27;87.20;97705.84;5024769;28;20037;-49
2022/05/26 03:13:45;;;;;;;0.68;0.30;;;11.60;99.90;;;11.26;86.95;97706.75;5021885;28;20025;-50
2022/05/26 03:16:11;;;;;;;2.13;0.40;;;11.60;99.90;;;11.25;87.47;97710.34;5023630;28;20071;-48
2022/05/26 03:18:37;;;;;;;0.95;0.50;;;11.60;99.90;;;11.21;88.13;97706.03;5014856;28;20093;-47
2022/05/26 03:21:06;;;;;;;0.95;0.55;;;11.60;99.90;;;11.20;88.29;97703.50;5025623;28;20341;-46
2022/05/26 03:23:33;;;;;;;0.88;0.50;;;11.50;99.90;;;11.16;88.46;97694.81;5030029;28;20540;-46
2022/05/26 03:25:59;;;;;;;1.65;0.47;;;11.50;99.90;;;11.20;88.54;97703.50;5024532;28;20123;-45
2022/05/26 03:28:27;;;;;;;0.90;0.40;;;11.50;99.90;;;11.19;88.14;97697.31;5029679;28;20037;-48
2022/05/26 03:30:54;;;;;;;1.50;0.50;;;11.60;99.90;;;11.28;88.32;97701.44;5024248;28;20574;-48
2022/05/26 03:33:20;;;;;;;0.65;0.43;;;11.60;99.90;;;11.35;87.62;97710.84;5022887;28;20038;-49
2022/05/26 03:41:19;;;;;;;1.17;0.50;;;11.70;99.90;;;11.35;87.49;97702.09;5020075;28;20051;-47
2022/05/26 03:43:52;;;;;;;2.20;0.50;;;11.70;99.90;;;11.33;88.03;97714.47;5004353;28;20039;-46
2022/05/26 03:46:18;;;;;;;0.98;0.50;;;11.70;99.90;;;11.28;88.61;97718.13;5029036;28;20037;-46
2022/05/26 03:48:43;;;;;;;0.30;0.30;;;11.60;99.90;;;11.25;89.21;97722.66;5021120;28;20037;-49
2022/05/26 03:51:10;;;;;;;0.47;0.30;;;11.60;99.90;;;11.22;89.46;97713.06;5020371;28;20500;-47
2022/05/26 03:53:35;;;;;;;1.13;0.47;;;11.60;99.90;;;11.25;89.71;97717.38;5023248;28;20029;-46
2022/05/26 03:56:03;;;;;;;0.52;0.40;;;11.60;99.90;;;11.25;89.37;97718.25;5021082;28;20370;-45
2022/05/26 03:58:30;;;;;;;1.02;0.50;;;11.70;99.90;;;11.26;89.51;97724.38;5007938;28;20512;-46
2022/05/26 04:01:04;;;;;;;0.70;0.50;;;11.60;99.90;;;11.25;89.25;97712.97;5019627;28;20433;-46
2022/05/26 04:03:30;;;;;;;0.95;0.52;;;11.60;99.90;;;11.31;89.55;97724.25;5029156;28;20033;-51
2022/05/26 04:05:56;;;;;;;0.50;0.38;;;11.70;99.90;;;11.29;89.83;97724.28;5025003;28;23373;-46
2022/05/26 04:08:22;;;;;;;0.77;0.40;;;11.60;99.90;;;11.28;89.80;97731.31;5022682;28;20034;-47
2022/05/26 04:10:47;;;;;;;0.52;0.43;;;11.70;99.90;;;11.30;89.61;97739.19;5020186;28;20032;-46
2022/05/26 04:13:13;;;;;;;2.08;0.60;;;11.60;99.90;;;11.32;89.59;97736.50;5029754;28;20489;-46
2022/05/26 04:15:39;;;;;;;1.30;0.47;;;11.70;99.90;;;11.40;89.84;97739.75;5024228;28;20463;-49
2022/05/26 04:18:05;;;;;;;0.80;0.50;;;11.70;99.90;;;11.49;89.17;97743.84;5020591;28;20692;-48
2022/05/26 04:20:31;;;;;;;1.20;0.55;;;11.90;99.90;;;11.56;88.99;97754.16;5043354;22;20036;-38
2022/05/26 04:22:57;;;;;;;2.25;0.60;;;11.90;99.90;;;11.68;88.42;97749.34;5025329;28;20033;-37
2022/05/26 04:25:25;;;;;;;1.67;0.80;;;12.00;99.90;;;11.75;87.94;97748.19;5013434;28;20038;-37
2022/05/26 04:27:55;;;;;;;1.75;0.57;;;12.10;99.90;;;11.91;87.54;97759.97;5028731;28;20030;-37
2022/05/26 04:30:23;;;;;;;1.27;0.68;;;12.30;99.90;;;12.07;85.97;97759.41;5029248;28;20041;-37
2022/05/26 04:32:49;;;;;;;0.52;0.50;;;12.40;99.90;;;12.23;85.32;97765.84;5022301;28;20088;-37
2022/05/26 04:35:15;;;;;;;3.22;0.70;;;12.60;99.90;;;12.38;84.85;97757.34;5019643;28;20082;-37
2022/05/26 04:37:41;;;;;;;2.17;0.50;;;12.70;99.90;;;12.60;83.88;97767.09;5022738;28;20036;-37
2022/05/26 04:40:09;;;;;;;1.20;0.50;;;12.90;99.90;;;12.79;82.87;97769.84;5029339;28;20048;-37
2022/05/26 04:42:37;;;;;;;1.48;0.40;;;13.10;99.90;;;12.95;81.56;97764.81;5024194;28;20175;-37
2022/05/26 04:45:04;;;;;;;0.98;0.47;;;13.20;99.90;;;12.92;81.30;97746.38;5030210;28;20509;-37
2022/05/26 04:47:30;;;;;;;2.05;0.60;;;13.40;99.90;;;13.08;80.74;97768.69;5032183;28;20029;-37
2022/05/26 04:49:56;;;;;;;1.05;0.60;;;13.40;99.90;;;13.10;80.39;97779.19;5028994;28;20520;-37
2022/05/26 04:52:24;;;;;;;1.00;0.50;;;13.40;99.90;;;13.04;80.23;97774.16;5021777;28;20135;-37
2022/05/26 04:54:52;;;;;;;1.00;0.45;;;13.40;99.90;;;13.01;80.10;97775.16;5023715;28;20485;-37
2022/05/26 04:57:21;;;;;;;2.67;0.60;;;13.30;99.90;;;12.95;80.61;97770.94;5025198;28;20164;-37
2022/05/26 04:59:47;;;;;;;0.40;0.40;;;13.30;99.90;;;12.90;81.02;97780.88;5022010;28;20033;-37
2022/05/26 05:02:14;;;;;;;1.08;0.60;;;13.20;99.90;;;12.86;81.95;97781.06;5022695;28;20167;-37
2022/05/26 05:04:42;;;;;;;1.25;0.50;;;13.10;99.90;;;12.81;82.52;97783.88;5022949;28;20355;-37
2022/05/26 05:07:09;;;;;;;1.10;0.50;;;13.10;99.90;;;12.75;83.62;97786.78;5024874;28;20545;-38
2022/05/26 05:09:37;;;;;;;0.98;0.45;;;13.00;99.90;;;12.69;83.96;97787.88;5023101;28;20033;-38
2022/05/26 05:12:05;;;;;;;0.90;0.50;;;12.90;99.90;;;12.65;84.76;97794.22;5022098;28;20039;-37
2022/05/26 05:14:41;;;;;;;1.10;0.40;;;12.90;99.90;;;12.76;84.41;97792.00;5033366;28;20037;-37
2022/05/26 05:17:07;;;;;;;1.00;0.38;;;12.90;99.90;;;13.29;83.07;97787.25;5032767;28;20540;-38
2022/05/26 05:19:32;;;;;;;0.40;0.40;;;13.10;99.90;;;14.07;79.31;97794.50;5034602;28;20048;-37
2022/05/26 05:22:25;;;;;;;0.60;0.50;;;13.60;99.90;;;15.06;72.62;97795.25;5028935;28;20040;-38
2022/05/26 05:25:03;;;;;;;1.83;0.38;;;14.30;99.90;;;15.94;68.05;97798.88;5029298;28;20056;-38
2022/05/26 05:27:53;;;;;;;2.63;0.60;;;15.10;99.90;;;16.49;64.29;97787.94;5017013;28;20028;-38
2022/05/26 05:30:30;;;;;;;0.60;0.40;;;15.70;99.90;;;16.61;63.49;97800.53;5013006;28;20133;-37
2022/05/26 05:33:13;;;;;;;0.70;0.57;;;16.00;99.90;;;16.49;63.56;97805.69;5035835;28;20028;-38
2022/05/26 05:35:56;;;;;;;0.73;0.40;;;16.10;99.90;;;16.25;62.07;97799.91;5030100;28;20033;-38
2022/05/26 05:38:22;;;;;;;;;;;16.20;99.90;;;16.41;61.79;97814.09;5029184;28;20056;-38
2022/05/26 05:40:48;;;;;;;0.50;0.40;;;16.20;99.90;;;16.47;61.64;97819.06;5025456;28;19990;-38
2022/05/26 05:43:14;;;;;;;1.27;0.40;;;16.20;99.90;;;16.70;60.68;97809.81;5029560;28;20033;-38
2022/05/26 05:45:40;;;;;;;0.45;0.40;;;16.40;99.90;;;16.88;60.23;97813.31;5034538;28;20745;-38
2022/05/26 05:48:07;;;;;;;8.38;0.60;;;16.60;99.80;;;16.98;59.92;97814.50;5023531;28;20025;-38
2022/05/26 05:50:33;;;;;;;1.30;0.50;;;16.80;99.40;;;17.10;58.40;97823.63;5040510;28;20041;-39
2022/05/26 05:52:59;;;;;;;1.33;0.60;;;17.00;98.80;;;17.31;58.19;97831.34;5043289;28;20037;-38
2022/05/26 05:55:25;;;;;;;2.42;0.50;;;17.20;98.40;;;17.51;58.29;97820.38;5037535;28;20622;-38
2022/05/26 05:57:51;;;;;;;1.02;0.52;;;17.50;98.20;;;17.52;57.29;97824.75;5032684;28;20037;-38
2022/05/26 06:00:17;;;;;;;2.15;0.50;;;17.60;97.60;;;17.43;56.97;97819.97;5038109;28;20040;-38
2022/05/26 06:02:43;;;;;;;1.30;0.60;;;17.50;97.10;;;17.19;57.71;97822.22;5039557;28;20060;-38
2022/05/26 06:05:10;;;;;;;2.33;0.50;;;17.40;97.30;;;16.90;59.13;97826.53;5041772;28;20464;-38
2022/05/26 06:07:39;;;;;;;1.40;0.50;;;17.20;97.40;;;16.78;59.56;97820.94;5040709;28;20096;-38
2022/05/26 06:10:11;;;;;;;3.20;0.52;;;17.00;97.70;;;16.49;61.41;97803.03;5041867;28;20041;-38
2022/05/26 06:12:38;;;;;;;3.17;0.68;;;17.00;98.30;;;16.40;61.89;97829.22;5040445;28;20034;-38
2022/05/26 06:15:04;;;;;;;2.67;0.55;;;16.80;98.30;;;16.30;61.85;97833.31;5039767;28;20495;-38
2022/05/26 06:17:30;;;;;;;2.10;0.70;;;16.70;98.30;;;16.33;63.22;97837.59;5040852;28;20093;-38
2022/05/26 06:19:56;;;;;;;1.15;0.57;;;16.60;98.90;;;16.33;63.49;97845.56;5040739;28;20033;-38
2022/05/26 06:22:23;;;;;;;3.40;0.57;;;16.60;98.90;;;16.22;62.81;97840.81;5034217;28;20120;-38
2022/05/26 06:24:49;;;;;;;1.58;0.50;;;16.50;98.70;;;16.17;63.14;97849.06;5038565;28;20089;-38
2022/05/26 06:30:09;;;;;;;3.00;0.57;;;16.40;99.10;;;16.06;64.87;97848.78;5040270;28;20415;-38
2022/05/26 06:38:20;;;;;;;1.13;0.50;;;16.50;99.30;;;16.28;65.46;97851.16;5041172;28;20516;-38
2022/05/26 06:40:47;;;;;;;2.92;0.40;;;16.60;99.80;;;16.39;64.79;97855.91;5039639;28;20037;-38
2022/05/26 06:43:14;;;;;;;3.72;0.65;;;16.70;99.60;;;16.43;64.54;97854.78;5040173;28;20032;-38
2022/05/26 06:45:40;;;;;;;1.00;0.40;;;16.70;99.40;;;16.41;62.83;97856.69;5038304;28;20480;-38
2022/05/26 06:48:07;;;;;;;2.50;0.50;;;16.80;98.80;;;16.50;64.28;97856.19;5037937;28;20040;-38
2022/05/26 06:50:33;;;;;;;4.55;0.77;;;16.80;99.00;;;16.46;63.49;97859.97;5042362;28;20110;-38
2022/05/26 06:52:59;;;;;;;0.98;0.50;;;16.90;99.00;;;16.60;63.87;97856.56;5041663;28;20037;-38
2022/05/26 06:55:25;;;;;;;3.17;0.60;;;17.00;98.90;;;16.68;62.01;97858.81;5038138;28;20048;-38
2022/05/26 06:57:51;;;;;;;1.58;0.50;;;17.10;98.60;;;16.90;61.94;97869.16;5040864;28;20041;-38
2022/05/26 07:00:18;;;;;;;2.22;0.52;;;17.20;98.60;;;17.11;62.37;97867.97;5037981;28;20064;-38
2022/05/26 07:02:45;;;;;;;2.50;0.60;;;17.30;98.50;;;17.08;60.64;97875.28;5023620;28;20027;-38
2022/05/26 07:05:12;;;;;;;1.88;0.70;;;17.50;97.70;;;17.08;61.66;97877.94;5039663;28;20040;-38
2022/05/26 07:07:40;;;;;;;4.00;0.63;;;17.40;98.10;;;17.11;60.68;97875.13;5035513;28;20082;-38
2022/05/26 07:10:08;;;;;;;1.05;0.43;;;17.40;98.00;;;17.09;62.08;97872.53;5040575;28;20024;-38
2022/05/26 07:12:35;;;;;;;1.23;0.55;;;17.30;97.90;;;17.13;62.03;97878.56;5038987;28;21043;-38
2022/05/26 07:15:03;;;;;;;1.65;0.85;;;17.30;98.30;;;17.08;61.70;97875.28;5038230;28;20055;-38
2022/05/26 07:17:29;;;;;;;2.78;0.70;;;17.40;98.60;;;17.24;61.74;97880.63;5038300;28;20052;-38
2022/05/26 07:19:55;;;;;;;3.08;0.70;;;17.50;98.50;;;17.48;57.90;97891.69;5039973;28;20484;-38
2022/05/26 07:22:21;;;;;;;1.17;0.45;;;17.80;96.70;;;17.65;55.14;97888.06;5039705;28;20040;-38
2022/05/26 07:24:49;;;;;;;1.20;0.52;;;18.00;95.90;;;17.95;58.77;97893.44;5035998;28;20039;-38
2022/05/26 07:27:15;;;;;;;1.63;0.40;;;18.20;96.70;;;18.19;59.70;97900.94;5035829;28;20112;-38
2022/05/26 07:29:41;;;;;;;1.08;0.60;;;18.50;97.40;;;18.23;56.13;97886.44;5035311;28;20037;-38
2022/05/26 07:32:07;;;;;;;0.65;0.40;;;18.60;95.70;;;18.46;55.95;97887.72;5032354;28;20433;-38
2022/05/26 07:34:33;;;;;;;0.50;0.40;;;18.70;96.00;;;18.76;56.03;97893.00;5030935;28;20064;-38
2022/05/26 07:42:33;;;;;;;1.13;0.50;;;19.20;94.60;;;18.85;52.79;97891.59;5037848;28;20107;-38
2022/05/26 07:45:00;;;;;;;1.88;0.50;;;19.30;93.90;;;18.97;52.39;97890.81;5018535;28;20028;-38
2022/05/26 07:47:29;;;;;;;2.63;0.60;;;19.30;93.90;;;18.85;49.92;97902.28;5020216;28;20033;-38
2022/05/26 07:49:55;;;;;;;1.92;0.80;;;19.30;92.50;;;18.96;51.22;97902.47;5038261;28;20713;-38
2022/05/26 07:52:22;;;;;;;1.17;0.47;;;19.30;92.80;;;19.00;52.13;97905.81;5034955;28;20032;-38
2022/05/26 07:54:47;;;;;;;1.33;0.65;;;19.40;93.50;;;18.95;52.60;97907.91;5030836;28;20087;-38
2022/05/26 07:57:27;;;;;;;1.73;0.60;;;19.40;93.10;;;18.88;52.82;97904.78;5036255;28;20029;-38
2022/05/26 07:59:54;;;;;;;3.33;0.60;;;19.40;93.20;;;19.05;49.79;97917.91;5029403;28;20043;-38
2022/05/26 08:02:21;;;;;;;0.77;0.60;;;19.40;92.10;;;18.99;53.84;97917.47;5035702;28;20044;-38
2022/05/26 08:04:47;;;;;;;1.48;0.50;;;19.40;93.80;;;19.06;50.72;97910.78;5030675;28;20119;-38
2022/05/26 08:07:14;;;;;;;1.50;0.50;;;19.40;92.20;;;18.94;50.81;97922.22;5035269;28;20040;-38
2022/05/26 08:09:40;;;;;;;3.83;0.68;;;19.40;92.50;;;18.67;53.90;97921.13;5037814;28;20490;-38
2022/05/26 08:12:10;;;;;;;1.42;0.47;;;19.20;93.20;;;18.38;52.50;97922.06;5040809;28;20031;-38
2022/05/26 08:14:37;;;;;;;1.70;0.40;;;18.90;92.60;;;18.28;53.18;97924.41;5035977;28;20037;-38
2022/05/26 08:17:03;;;;;;;0.90;0.50;;;18.60;93.70;;;17.90;56.38;97924.88;5033098;28;20032;-38
2022/05/26 08:19:29;;;;;;;2.13;1.15;;;18.30;94.50;;;17.60;55.85;97922.13;5039023;28;20591;-38
2022/05/26 08:21:56;;;;;;;2.13;1.15;;;18.00;94.40;;;17.35;58.64;97927.06;5037496;28;20084;-38
2022/05/26 08:24:24;;;;;;;2.20;0.73;;;17.80;95.20;;;17.18;59.06;97929.81;5036985;28;20044;-38
2022/05/26 08:26:50;;;;;;;3.05;0.82;;;17.60;95.80;;;17.03;62.36;97935.97;5037476;28;20320;-38
2022/05/26 08:29:16;;;;;;;1.40;0.70;;;17.40;96.30;;;16.89;59.00;97932.25;5041134;28;20156;-38
2022/05/26 08:31:42;;;;;;;1.35;0.60;;;17.30;95.70;;;16.95;60.48;97931.91;5036302;28;20453;-38
2022/05/26 08:34:08;;;;;;;1.05;0.50;;;17.30;96.20;;;17.08;60.44;97925.91;5038661;28;20052;-38
2022/05/26 08:36:35;;;;;;;2.38;0.47;;;17.40;96.60;;;17.22;61.90;97936.66;5032282;28;20506;-38
2022/05/26 08:39:01;;;;;;;1.40;0.63;;;17.50;97.30;;;17.26;61.58;97942.69;5037786;28;20473;-38
2022/05/26 08:41:38;;;;;;;2.08;0.60;;;17.60;97.30;;;17.24;61.10;97937.44;5040117;28;20037;-38
2022/05/26 08:44:29;;;;;;;1.30;0.52;;;17.50;96.90;;;17.11;60.07;97939.06;5019654;28;20052;-38
2022/05/26 08:47:10;;;;;;;3.40;0.60;;;17.50;96.60;;;17.21;61.55;97934.97;5038739;28;20044;-38
2022/05/26 08:49:53;;;;;;;3.13;0.60;;;17.50;96.90;;;17.51;58.41;97936.84;5038423;28;20394;-38
2022/05/26 08:52:39;;;;;;;1.65;0.55;;;17.80;96.20;;;18.01;57.58;97935.78;5020742;28;20029;-38
2022/05/26 08:55:15;;;;;;;1.08;0.63;;;18.30;95.80;;;18.47;55.44;97938.38;5039623;28;20037;-38
2022/05/26 08:57:50;;;;;;;1.05;0.60;;;18.80;95.00;;;18.83;53.35;97945.13;5039112;28;20493;-38
2022/05/26 09:00:20;;;;;;;6.38;0.50;;;19.10;93.80;;;19.22;52.77;97948.94;5019825;28;20045;-38
2022/05/26 09:02:46;;;;;;;4.03;0.68;;;19.50;93.50;;;19.67;51.89;97947.88;5019498;28;20024;-38
2022/05/26 09:05:20;;;;;;;2.35;0.52;;;20.00;93.10;;;19.98;50.00;97942.25;5035444;28;20051;-39
2022/05/26 09:12:55;;;;;;;1.90;0.77;;;20.70;92.40;;;20.58;49.14;97943.56;5039254;28;20315;-38
2022/05/26 09:14:33;;;;;;;0.93;0.52;;;21.10;91.30;;;20.78;47.72;97946.69;5039223;28;20071;-37
2022/05/26 09:17:05;;;;;;;2.97;0.40;;;21.20;90.60;;;20.89;50.35;97954.00;5030666;28;20120;-39
2022/05/26 09:19:42;;;;;;;0.87;0.50;;;21.30;91.60;;;20.68;48.22;97957.22;5024851;28;20504;-39
2022/05/26 09:22:44;;;;;;;1.38;0.60;;;21.20;90.10;;;20.57;47.72;97962.44;5028552;28;20751;-39
2022/05/26 09:25:14;;;;;;;2.22;0.70;;;21.00;90.00;;;20.33;48.60;97954.25;5022523;28;20029;-39
2022/05/26 09:27:50;;;;;;;1.77;0.63;;;20.80;90.10;;;20.25;50.16;97953.91;5032129;28;20052;-39
2022/05/26 09:30:25;;;;;;;1.48;0.50;;;20.60;91.40;;;20.12;51.13;97959.25;5034637;28;20039;-39
2022/05/26 09:32:51;;;;;;;1.95;0.90;;;20.50;91.80;;;19.75;50.14;97957.16;5011677;28;21140;-39
2022/05/26 09:35:20;;;;;;;2.05;0.52;;;20.20;91.20;;;19.36;52.36;97958.78;5014022;28;20025;-38
2022/05/26 09:38:02;;;;;;;0.60;0.47;;;19.80;92.20;;;19.00;58.05;97964.59;5026956;28;20107;-39
2022/05/26 09:40:35;;;;;;;4.90;0.60;;;19.40;94.70;;;18.68;56.52;97960.28;5030087;28;20069;-39
2022/05/26 09:43:14;;;;;;;0.80;0.50;;;19.10;94.00;;;18.58;60.52;97967.13;5033514;28;20028;-39
2022/05/26 09:45:45;;;;;;;2.42;0.55;;;18.90;94.70;;;18.46;59.50;97966.03;5034357;28;20120;-38
2022/05/26 09:48:36;;;;;;;0.60;0.50;;;18.80;95.50;;;18.39;61.73;97966.50;5033138;28;20029;-38
2022/05/26 09:51:14;;;;;;;0.70;0.50;;;18.70;96.20;;;18.35;59.42;97968.50;5019255;28;20037;-39
2022/05/26 09:53:45;;;;;;;1.35;0.50;;;18.70;95.80;;;18.40;59.20;97965.56;5020386;28;20374;-38
2022/05/26 09:56:38;;;;;;;0.60;0.52;;;18.70;95.90;;;18.56;58.65;97973.50;5014231;28;20029;-38
2022/05/26 09:59:27;;;;;;;1.48;0.60;;;18.80;95.20;;;18.78;54.91;97971.25;5031958;28;20036;-39
2022/05/26 10:02:13;;;;;;;1.63;0.55;;;19.20;94.80;;;18.97;56.00;97980.81;5033187;28;20029;-38
2022/05/26 10:05:24;;;;;;;3.45;0.70;;;19.30;94.10;;;19.21;56.25;97981.13;5033850;28;20436;-38
2022/05/26 10:08:07;;;;;;;1.85;0.70;;;19.50;94.30;;;19.20;54.69;97988.28;5034108;28;20033;-39
2022/05/26 10:10:52;;;;;;;2.30;0.70;;;19.60;94.10;;;19.08;52.92;97978.38;5032195;28;20281;-38
2022/05/26 10:13:27;;;;;;;1.17;0.50;;;19.40;92.30;;;19.08;53.45;97979.22;5014519;28;20070;-38
2022/05/26 10:16:32;;;;;;;1.58;0.68;;;19.40;93.20;;;19.13;53.05;97973.59;5035479;28;20032;-38
2022/05/26 10:19:06;;;;;;;1.50;0.55;;;19.40;92.70;;;19.32;53.45;97973.28;5033829;28;20037;-38
2022/05/26 10:22:22;;;;;;;1.17;0.60;;;19.50;92.90;;;19.48;52.81;97978.50;5032603;28;20028;-38
2022/05/26 10:25:05;;;;;;;0.80;0.40;;;19.80;94.10;;;19.69;54.94;97973.59;5034904;28;20029;-38
2022/05/26 10:27:50;;;;;;;1.30;0.93;;;20.10;93.60;;;19.92;50.97;97977.47;5033016;28;20493;-38
2022/05/26 10:30:46;;;;;;;2.05;0.50;;;20.30;92.20;;;20.29;50.48;97977.69;5036483;23;20049;-37
2022/05/26 10:33:58;;;;;;;1.35;0.50;;;20.70;91.60;;;20.60;49.76;97975.59;5014844;28;20509;-37
2022/05/26 10:36:43;;;;;;;1.15;0.70;;;20.90;91.70;;;20.65;47.86;97984.22;5016181;28;20039;-37
2022/05/26 10:39:29;;;;;;;2.63;0.60;;;21.00;90.00;;;20.60;47.46;97980.97;5018746;28;20112;-37
2022/05/26 10:42:23;;;;;;;1.42;0.57;;;21.00;89.00;;;20.50;48.30;97977.22;5000658;28;20168;-37
2022/05/26 10:45:06;;;;;;;1.60;0.70;;;20.80;90.00;;;20.13;49.61;97983.22;5019174;28;20025;-37
2022/05/26 10:47:54;;;;;;;0.73;0.50;;;20.50;90.20;;;19.64;50.70;97981.06;5018486;28;20029;-37
2022/05/26 10:50:46;;;;;;;0.85;0.60;;;20.00;91.00;;;19.31;51.59;97990.28;5019485;28;20053;-38
2022/05/26 10:53:38;;;;;;;0.90;0.60;;;19.70;91.50;;;19.05;53.92;97983.88;4996248;28;20173;-37
2022/05/26 10:56:29;;;;;;;2.55;0.80;;;19.40;92.20;;;18.76;56.09;97988.34;4997950;28;20128;-37
2022/05/26 10:59:21;;;;;;;3.25;0.80;;;19.10;93.70;;;18.41;56.30;97981.50;4997442;28;20040;-37
2022/05/26 11:01:58;;;;;;;0.57;0.50;;;18.80;93.30;;;18.26;58.28;97963.69;5006136;28;20289;-37
2022/05/26 11:04:44;;;;;;;2.00;0.50;;;18.60;94.30;;;18.30;58.95;97981.25;5012117;28;20029;-38
2022/05/26 11:07:56;;;;;;;1.15;0.47;;;18.60;95.00;;;18.41;58.66;97976.16;4996759;28;20036;-37
2022/05/26 11:10:32;;;;;;;2.22;0.73;;;18.60;94.80;;;18.70;54.37;97974.38;4987737;28;20148;-38
2022/05/26 11:13:27;;;;;;;0.77;0.32;;;19.00;93.70;;;19.19;55.55;97981.22;5011265;28;20034;-38